sensor_id;sensor_type;location;lat;lon;timestamp;pressure;altitude;pressure_sealevel;temperature;humidity
26657;BME280;14279;50.010;8.260;2023-02-02T00:01:07;100931.66;;;7.76;77.18
26657;BME280;14279;50.010;8.260;2023-02-02T00:03:33;100924.75;;;7.75;76.70
26657;BME280;14279;50.010;8.260;2023-02-02T00:05:58;100931.69;;;7.75;76.62
26657;BME280;14279;50.010;8.260;2023-02-02T00:08:23;100924.84;;;7.72;76.99
26657;BME280;14279;50.010;8.260;2023-02-02T00:10:48;100930.97;;;7.70;76.49
26657;BME280;14279;50.010;8.260;2023-02-02T00:13:14;100914.66;;;7.99;75.53
26657;BME280;14279;50.010;8.260;2023-02-02T00:15:40;100924.56;;;7.83;75.57
26657;BME280;14279;50.010;8.260;2023-02-02T00:18:05;100920.97;;;7.89;75.13
26657;BME280;14279;50.010;8.260;2023-02-02T00:20:31;100921.41;;;8.05;74.41
26657;BME280;14279;50.010;8.260;2023-02-02T00:22:59;100933.03;;;7.90;74.39
26657;BME280;14279;50.010;8.260;2023-02-02T00:25:24;100920.03;;;7.91;74.26
26657;BME280;14279;50.010;8.260;2023-02-02T00:27:49;100927.41;;;8.07;73.85
26657;BME280;14279;50.010;8.260;2023-02-02T00:30:14;100929.31;;;8.00;73.61
26657;BME280;14279;50.010;8.260;2023-02-02T00:32:40;100940.16;;;8.15;73.53
26657;BME280;14279;50.010;8.260;2023-02-02T00:35:06;100928.22;;;8.09;73.24
26657;BME280;14279;50.010;8.260;2023-02-02T00:37:32;100931.84;;;8.02;73.91
26657;BME280;14279;50.010;8.260;2023-02-02T00:39:57;100924.50;;;7.86;74.30
26657;BME280;14279;50.010;8.260;2023-02-02T00:42:22;100937.31;;;7.92;73.69
26657;BME280;14279;50.010;8.260;2023-02-02T00:44:48;100931.34;;;8.20;73.21
26657;BME280;14279;50.010;8.260;2023-02-02T00:47:31;100915.03;;;8.18;72.63
26657;BME280;14279;50.010;8.260;2023-02-02T00:49:57;100934.56;;;7.97;73.83
26657;BME280;14279;50.010;8.260;2023-02-02T00:52:22;100920.38;;;8.10;73.82
26657;BME280;14279;50.010;8.260;2023-02-02T00:54:47;100910.44;;;7.95;74.28
26657;BME280;14279;50.010;8.260;2023-02-02T00:57:13;100935.19;;;8.07;74.44
26657;BME280;14279;50.010;8.260;2023-02-02T00:59:39;100930.88;;;8.06;74.77
26657;BME280;14279;50.010;8.260;2023-02-02T01:02:04;100925.94;;;7.96;74.71
26657;BME280;14279;50.010;8.260;2023-02-02T01:04:30;100921.19;;;8.12;75.08
26657;BME280;14279;50.010;8.260;2023-02-02T01:06:55;100937.44;;;7.86;75.78
26657;BME280;14279;50.010;8.260;2023-02-02T01:09:20;100937.03;;;8.03;75.62
26657;BME280;14279;50.010;8.260;2023-02-02T01:11:46;100944.53;;;8.12;75.30
26657;BME280;14279;50.010;8.260;2023-02-02T01:14:11;100937.69;;;8.10;75.51
26657;BME280;14279;50.010;8.260;2023-02-02T01:16:36;100940.31;;;8.08;75.26
26657;BME280;14279;50.010;8.260;2023-02-02T01:19:01;100955.31;;;7.62;78.55
26657;BME280;14279;50.010;8.260;2023-02-02T01:21:27;100942.16;;;7.70;78.86
26657;BME280;14279;50.010;8.260;2023-02-02T01:23:52;100939.56;;;7.70;78.72
26657;BME280;14279;50.010;8.260;2023-02-02T01:26:17;100942.94;;;7.74;79.21
26657;BME280;14279;50.010;8.260;2023-02-02T01:28:43;100955.97;;;7.71;79.32
26657;BME280;14279;50.010;8.260;2023-02-02T01:31:11;100963.59;;;7.77;79.49
26657;BME280;14279;50.010;8.260;2023-02-02T01:33:37;100938.00;;;7.63;80.47
26657;BME280;14279;50.010;8.260;2023-02-02T01:36:05;100954.31;;;7.68;80.91
26657;BME280;14279;50.010;8.260;2023-02-02T01:38:31;100953.81;;;7.54;80.67
26657;BME280;14279;50.010;8.260;2023-02-02T01:40:57;100953.53;;;7.64;80.86
26657;BME280;14279;50.010;8.260;2023-02-02T01:43:49;100945.53;;;7.74;80.67
26657;BME280;14279;50.010;8.260;2023-02-02T01:46:26;100957.31;;;7.86;79.38
26657;BME280;14279;50.010;8.260;2023-02-02T01:49:07;100952.47;;;7.72;78.75
26657;BME280;14279;50.010;8.260;2023-02-02T01:51:56;100953.00;;;7.86;77.97
26657;BME280;14279;50.010;8.260;2023-02-02T01:54:25;100946.69;;;7.96;77.78
26657;BME280;14279;50.010;8.260;2023-02-02T01:56:56;100957.56;;;7.76;77.79
26657;BME280;14279;50.010;8.260;2023-02-02T01:59:22;100948.31;;;8.01;77.63
26657;BME280;14279;50.010;8.260;2023-02-02T02:01:50;100949.38;;;7.93;77.84
26657;BME280;14279;50.010;8.260;2023-02-02T02:04:16;100953.91;;;7.85;78.47
26657;BME280;14279;50.010;8.260;2023-02-02T02:06:42;100948.50;;;7.93;78.00
26657;BME280;14279;50.010;8.260;2023-02-02T02:09:09;100959.22;;;8.13;77.38
26657;BME280;14279;50.010;8.260;2023-02-02T02:11:35;100959.41;;;8.06;78.02
26657;BME280;14279;50.010;8.260;2023-02-02T02:14:03;100958.72;;;7.99;77.72
26657;BME280;14279;50.010;8.260;2023-02-02T02:17:07;100956.63;;;8.13;76.97
26657;BME280;14279;50.010;8.260;2023-02-02T02:20:10;100956.69;;;8.10;76.89
26657;BME280;14279;50.010;8.260;2023-02-02T02:29:25;100955.81;;;8.11;77.37
26657;BME280;14279;50.010;8.260;2023-02-02T02:40:19;100953.25;;;8.10;76.79
26657;BME280;14279;50.010;8.260;2023-02-02T02:42:50;100961.19;;;8.04;77.13
26657;BME280;14279;50.010;8.260;2023-02-02T02:45:17;100953.34;;;8.07;76.88
26657;BME280;14279;50.010;8.260;2023-02-02T02:47:43;100962.47;;;8.20;76.84
26657;BME280;14279;50.010;8.260;2023-02-02T02:50:09;100947.81;;;8.19;76.46
26657;BME280;14279;50.010;8.260;2023-02-02T02:52:35;100957.72;;;8.05;76.62
26657;BME280;14279;50.010;8.260;2023-02-02T02:55:01;100944.47;;;8.16;76.51
26657;BME280;14279;50.010;8.260;2023-02-02T02:57:43;100945.41;;;8.13;75.79
26657;BME280;14279;50.010;8.260;2023-02-02T03:02:56;100956.06;;;8.02;76.36
26657;BME280;14279;50.010;8.260;2023-02-02T03:05:32;100962.06;;;8.04;77.03
26657;BME280;14279;50.010;8.260;2023-02-02T03:08:13;100954.69;;;8.22;76.13
26657;BME280;14279;50.010;8.260;2023-02-02T03:10:43;100955.66;;;8.18;76.68
26657;BME280;14279;50.010;8.260;2023-02-02T03:13:11;100953.78;;;8.23;76.23
26657;BME280;14279;50.010;8.260;2023-02-02T03:15:40;100950.25;;;8.25;76.04
26657;BME280;14279;50.010;8.260;2023-02-02T03:18:05;100949.88;;;8.39;75.26
26657;BME280;14279;50.010;8.260;2023-02-02T03:20:30;100939.41;;;8.11;76.33
26657;BME280;14279;50.010;8.260;2023-02-02T03:22:55;100949.66;;;8.16;76.09
26657;BME280;14279;50.010;8.260;2023-02-02T03:25:21;100948.06;;;8.10;76.11
26657;BME280;14279;50.010;8.260;2023-02-02T03:27:47;100946.13;;;8.18;76.15
26657;BME280;14279;50.010;8.260;2023-02-02T03:30:13;100949.50;;;8.22;75.98
26657;BME280;14279;50.010;8.260;2023-02-02T03:32:38;100950.03;;;8.33;74.94
26657;BME280;14279;50.010;8.260;2023-02-02T03:35:04;100951.22;;;8.21;75.60
26657;BME280;14279;50.010;8.260;2023-02-02T03:37:30;100949.50;;;8.22;75.05
26657;BME280;14279;50.010;8.260;2023-02-02T03:39:55;100944.16;;;8.26;75.06
26657;BME280;14279;50.010;8.260;2023-02-02T03:42:20;100951.75;;;8.34;74.80
26657;BME280;14279;50.010;8.260;2023-02-02T03:44:45;100950.31;;;8.24;74.96
26657;BME280;14279;50.010;8.260;2023-02-02T03:47:10;100950.31;;;8.24;74.76
26657;BME280;14279;50.010;8.260;2023-02-02T03:49:36;100945.78;;;8.31;74.61
26657;BME280;14279;50.010;8.260;2023-02-02T03:52:01;100951.94;;;8.28;74.78
26657;BME280;14279;50.010;8.260;2023-02-02T03:54:28;100954.78;;;8.50;73.83
26657;BME280;14279;50.010;8.260;2023-02-02T03:56:54;100958.16;;;8.21;74.93
26657;BME280;14279;50.010;8.260;2023-02-02T03:59:19;100958.38;;;8.13;74.91
26657;BME280;14279;50.010;8.260;2023-02-02T04:01:44;100962.41;;;8.23;74.46
26657;BME280;14279;50.010;8.260;2023-02-02T04:04:09;100961.00;;;8.43;74.48
26657;BME280;14279;50.010;8.260;2023-02-02T04:06:35;100965.72;;;8.30;74.67
26657;BME280;14279;50.010;8.260;2023-02-02T04:09:00;100968.25;;;8.32;74.67
26657;BME280;14279;50.010;8.260;2023-02-02T04:11:25;100958.47;;;8.41;74.35
26657;BME280;14279;50.010;8.260;2023-02-02T04:13:50;100968.91;;;8.38;75.26
26657;BME280;14279;50.010;8.260;2023-02-02T04:16:16;100960.84;;;8.18;75.54
26657;BME280;14279;50.010;8.260;2023-02-02T04:18:41;100970.59;;;8.41;74.81
26657;BME280;14279;50.010;8.260;2023-02-02T04:21:06;100967.50;;;8.28;74.89
26657;BME280;14279;50.010;8.260;2023-02-02T04:23:32;100973.44;;;8.32;74.95
26657;BME280;14279;50.010;8.260;2023-02-02T04:25:58;100972.88;;;8.53;74.42
26657;BME280;14279;50.010;8.260;2023-02-02T04:28:25;100968.03;;;8.39;74.85
26657;BME280;14279;50.010;8.260;2023-02-02T04:30:52;100974.25;;;8.34;74.87
26657;BME280;14279;50.010;8.260;2023-02-02T04:33:18;100968.91;;;8.40;74.33
26657;BME280;14279;50.010;8.260;2023-02-02T04:35:44;100979.50;;;8.31;74.93
26657;BME280;14279;50.010;8.260;2023-02-02T04:38:09;100987.75;;;8.47;74.68
26657;BME280;14279;50.010;8.260;2023-02-02T04:40:38;100982.38;;;8.54;74.32
26657;BME280;14279;50.010;8.260;2023-02-02T04:43:04;100982.91;;;8.33;75.05
26657;BME280;14279;50.010;8.260;2023-02-02T04:45:29;100988.31;;;8.25;74.93
26657;BME280;14279;50.010;8.260;2023-02-02T04:47:55;100996.13;;;8.23;75.40
26657;BME280;14279;50.010;8.260;2023-02-02T04:50:20;101003.88;;;8.25;75.60
26657;BME280;14279;50.010;8.260;2023-02-02T04:52:45;101000.47;;;8.23;75.73
26657;BME280;14279;50.010;8.260;2023-02-02T04:55:11;101002.09;;;8.27;75.62
26657;BME280;14279;50.010;8.260;2023-02-02T04:57:36;100999.59;;;8.22;75.46
26657;BME280;14279;50.010;8.260;2023-02-02T05:00:02;101003.91;;;8.23;75.62
26657;BME280;14279;50.010;8.260;2023-02-02T05:02:27;100993.44;;;8.26;75.02
26657;BME280;14279;50.010;8.260;2023-02-02T05:04:52;100999.50;;;8.27;74.85
26657;BME280;14279;50.010;8.260;2023-02-02T05:07:18;101003.06;;;8.23;75.22
26657;BME280;14279;50.010;8.260;2023-02-02T05:09:43;101008.66;;;8.40;74.46
26657;BME280;14279;50.010;8.260;2023-02-02T05:12:08;101006.41;;;8.26;74.77
26657;BME280;14279;50.010;8.260;2023-02-02T05:14:33;101008.88;;;8.33;74.55
26657;BME280;14279;50.010;8.260;2023-02-02T05:16:59;101014.94;;;8.32;74.47
26657;BME280;14279;50.010;8.260;2023-02-02T05:19:24;101019.72;;;8.49;74.28
26657;BME280;14279;50.010;8.260;2023-02-02T05:21:49;101016.25;;;8.48;74.48
26657;BME280;14279;50.010;8.260;2023-02-02T05:24:14;101027.63;;;8.42;74.55
26657;BME280;14279;50.010;8.260;2023-02-02T05:26:40;101021.03;;;8.31;74.94
26657;BME280;14279;50.010;8.260;2023-02-02T05:29:05;101029.16;;;8.17;75.35
26657;BME280;14279;50.010;8.260;2023-02-02T05:31:31;101021.63;;;8.40;75.02
26657;BME280;14279;50.010;8.260;2023-02-02T05:33:56;101020.13;;;8.32;75.37
26657;BME280;14279;50.010;8.260;2023-02-02T05:36:21;101019.44;;;8.25;75.73
26657;BME280;14279;50.010;8.260;2023-02-02T05:38:47;101023.66;;;8.29;75.76
26657;BME280;14279;50.010;8.260;2023-02-02T05:41:12;101027.50;;;8.14;75.85
26657;BME280;14279;50.010;8.260;2023-02-02T05:43:37;101032.34;;;8.28;76.30
26657;BME280;14279;50.010;8.260;2023-02-02T05:46:02;101028.22;;;8.19;76.05
26657;BME280;14279;50.010;8.260;2023-02-02T05:48:28;101034.38;;;8.15;76.31
26657;BME280;14279;50.010;8.260;2023-02-02T05:50:58;101046.50;;;8.15;76.85
26657;BME280;14279;50.010;8.260;2023-02-02T05:53:25;101055.84;;;8.22;76.46
26657;BME280;14279;50.010;8.260;2023-02-02T05:55:51;101051.38;;;8.27;77.16
26657;BME280;14279;50.010;8.260;2023-02-02T05:58:16;101043.00;;;8.17;76.77
26657;BME280;14279;50.010;8.260;2023-02-02T06:00:41;101053.69;;;8.03;76.86
26657;BME280;14279;50.010;8.260;2023-02-02T06:03:07;101046.69;;;8.07;76.94
26657;BME280;14279;50.010;8.260;2023-02-02T06:05:32;101033.66;;;8.08;76.81
26657;BME280;14279;50.010;8.260;2023-02-02T06:07:57;101042.00;;;8.21;75.99
26657;BME280;14279;50.010;8.260;2023-02-02T06:10:22;101047.09;;;8.24;76.20
26657;BME280;14279;50.010;8.260;2023-02-02T06:12:47;101051.59;;;8.18;76.48
26657;BME280;14279;50.010;8.260;2023-02-02T06:15:13;101046.97;;;8.31;75.77
26657;BME280;14279;50.010;8.260;2023-02-02T06:17:38;101056.66;;;8.22;76.19
26657;BME280;14279;50.010;8.260;2023-02-02T06:20:04;101055.16;;;8.13;76.08
26657;BME280;14279;50.010;8.260;2023-02-02T06:22:31;101061.44;;;8.39;75.39
26657;BME280;14279;50.010;8.260;2023-02-02T06:24:56;101062.41;;;8.35;75.28
26657;BME280;14279;50.010;8.260;2023-02-02T06:27:22;101056.44;;;8.32;75.10
26657;BME280;14279;50.010;8.260;2023-02-02T06:29:47;101052.16;;;8.31;75.24
26657;BME280;14279;50.010;8.260;2023-02-02T06:32:12;101050.75;;;8.17;75.32
26657;BME280;14279;50.010;8.260;2023-02-02T06:34:37;101050.13;;;8.42;74.18
26657;BME280;14279;50.010;8.260;2023-02-02T06:37:03;101045.03;;;8.39;74.75
26657;BME280;14279;50.010;8.260;2023-02-02T06:39:28;101057.47;;;8.26;75.03
26657;BME280;14279;50.010;8.260;2023-02-02T06:41:53;101034.94;;;8.28;75.04
26657;BME280;14279;50.010;8.260;2023-02-02T06:44:18;101053.31;;;8.53;74.49
26657;BME280;14279;50.010;8.260;2023-02-02T06:46:45;101040.81;;;8.33;74.56
26657;BME280;14279;50.010;8.260;2023-02-02T06:49:10;101030.94;;;8.15;75.27
26657;BME280;14279;50.010;8.260;2023-02-02T06:51:36;101047.16;;;8.23;75.35
26657;BME280;14279;50.010;8.260;2023-02-02T06:54:01;101042.94;;;8.19;75.63
26657;BME280;14279;50.010;8.260;2023-02-02T06:56:28;101052.28;;;8.26;75.61
26657;BME280;14279;50.010;8.260;2023-02-02T06:58:53;101042.47;;;8.37;74.68
26657;BME280;14279;50.010;8.260;2023-02-02T07:01:18;101042.53;;;8.34;75.25
26657;BME280;14279;50.010;8.260;2023-02-02T07:03:47;101052.69;;;8.43;74.86
26657;BME280;14279;50.010;8.260;2023-02-02T07:06:22;101048.78;;;8.27;75.24
26657;BME280;14279;50.010;8.260;2023-02-02T07:08:49;101053.97;;;8.27;75.28
26657;BME280;14279;50.010;8.260;2023-02-02T07:11:15;101064.22;;;8.32;75.01
26657;BME280;14279;50.010;8.260;2023-02-02T07:13:41;101057.38;;;8.29;75.01
26657;BME280;14279;50.010;8.260;2023-02-02T07:16:06;101064.19;;;8.33;74.99
26657;BME280;14279;50.010;8.260;2023-02-02T07:18:37;101055.13;;;8.15;75.90
26657;BME280;14279;50.010;8.260;2023-02-02T07:21:04;101068.13;;;8.13;76.04
26657;BME280;14279;50.010;8.260;2023-02-02T07:23:29;101068.66;;;8.28;75.42
26657;BME280;14279;50.010;8.260;2023-02-02T07:26:04;101072.56;;;8.45;74.95
26657;BME280;14279;50.010;8.260;2023-02-02T07:28:30;101062.38;;;8.37;74.88
26657;BME280;14279;50.010;8.260;2023-02-02T07:30:55;101069.13;;;8.42;75.15
26657;BME280;14279;50.010;8.260;2023-02-02T07:33:21;101078.84;;;8.36;74.81
26657;BME280;14279;50.010;8.260;2023-02-02T07:35:46;101076.09;;;8.42;74.57
26657;BME280;14279;50.010;8.260;2023-02-02T07:38:11;101084.38;;;8.22;73.75
26657;BME280;14279;50.010;8.260;2023-02-02T07:40:36;101077.28;;;8.28;73.85
26657;BME280;14279;50.010;8.260;2023-02-02T07:43:02;101089.00;;;8.43;73.85
26657;BME280;14279;50.010;8.260;2023-02-02T07:45:28;101094.47;;;8.33;73.95
26657;BME280;14279;50.010;8.260;2023-02-02T07:47:57;101090.13;;;8.33;74.00
26657;BME280;14279;50.010;8.260;2023-02-02T07:50:23;101095.22;;;8.38;74.51
26657;BME280;14279;50.010;8.260;2023-02-02T07:52:49;101100.41;;;8.38;73.61
26657;BME280;14279;50.010;8.260;2023-02-02T07:55:15;101086.13;;;8.20;74.10
26657;BME280;14279;50.010;8.260;2023-02-02T07:57:40;101107.56;;;8.28;74.11
26657;BME280;14279;50.010;8.260;2023-02-02T08:00:06;101094.09;;;8.48;73.09
26657;BME280;14279;50.010;8.260;2023-02-02T08:02:31;101084.56;;;8.47;72.75
26657;BME280;14279;50.010;8.260;2023-02-02T08:04:56;101085.31;;;8.54;72.37
26657;BME280;14279;50.010;8.260;2023-02-02T08:07:22;101087.94;;;8.54;72.29
26657;BME280;14279;50.010;8.260;2023-02-02T08:09:49;101094.97;;;8.49;72.27
26657;BME280;14279;50.010;8.260;2023-02-02T08:12:14;101091.34;;;8.54;71.67
26657;BME280;14279;50.010;8.260;2023-02-02T08:14:40;101104.56;;;8.43;72.34
26657;BME280;14279;50.010;8.260;2023-02-02T08:17:05;101108.41;;;8.65;71.74
26657;BME280;14279;50.010;8.260;2023-02-02T08:19:31;101097.81;;;8.72;71.25
26657;BME280;14279;50.010;8.260;2023-02-02T08:21:56;101106.34;;;8.78;70.58
26657;BME280;14279;50.010;8.260;2023-02-02T08:24:21;101109.00;;;8.75;70.88
26657;BME280;14279;50.010;8.260;2023-02-02T08:26:46;101096.41;;;8.61;70.79
26657;BME280;14279;50.010;8.260;2023-02-02T08:29:12;101112.03;;;8.57;71.10
26657;BME280;14279;50.010;8.260;2023-02-02T08:31:41;101112.81;;;8.94;70.23
26657;BME280;14279;50.010;8.260;2023-02-02T08:34:07;101111.06;;;8.95;69.79
26657;BME280;14279;50.010;8.260;2023-02-02T08:36:33;101125.28;;;8.81;70.34
26657;BME280;14279;50.010;8.260;2023-02-02T08:39:04;101109.38;;;8.61;70.60
26657;BME280;14279;50.010;8.260;2023-02-02T08:41:30;101119.41;;;8.75;70.25
26657;BME280;14279;50.010;8.260;2023-02-02T08:43:55;101112.81;;;8.61;70.58
26657;BME280;14279;50.010;8.260;2023-02-02T08:46:20;101115.53;;;8.56;70.60
26657;BME280;14279;50.010;8.260;2023-02-02T08:48:46;101114.66;;;8.91;69.70
26657;BME280;14279;50.010;8.260;2023-02-02T08:51:13;101123.28;;;8.91;69.83
26657;BME280;14279;50.010;8.260;2023-02-02T08:53:40;101124.38;;;8.82;69.85
26657;BME280;14279;50.010;8.260;2023-02-02T08:56:19;101117.94;;;8.97;68.88
26657;BME280;14279;50.010;8.260;2023-02-02T08:58:50;101118.03;;;8.93;68.81
26657;BME280;14279;50.010;8.260;2023-02-02T09:01:21;101113.56;;;8.98;68.76
26657;BME280;14279;50.010;8.260;2023-02-02T09:03:46;101109.47;;;8.89;68.68
26657;BME280;14279;50.010;8.260;2023-02-02T09:06:17;101100.84;;;8.89;68.65
26657;BME280;14279;50.010;8.260;2023-02-02T09:08:44;101096.28;;;8.97;68.63
26657;BME280;14279;50.010;8.260;2023-02-02T09:11:15;101124.75;;;9.01;68.56
26657;BME280;14279;50.010;8.260;2023-02-02T09:13:42;101117.56;;;9.10;67.94
26657;BME280;14279;50.010;8.260;2023-02-02T09:16:11;101119.19;;;9.14;67.99
26657;BME280;14279;50.010;8.260;2023-02-02T09:18:37;101112.38;;;9.10;67.54
26657;BME280;14279;50.010;8.260;2023-02-02T09:21:05;101114.47;;;8.97;68.15
26657;BME280;14279;50.010;8.260;2023-02-02T09:23:35;101129.50;;;9.17;68.05
26657;BME280;14279;50.010;8.260;2023-02-02T09:28:48;101134.78;;;9.14;67.44
26657;BME280;14279;50.010;8.260;2023-02-02T09:31:14;101141.03;;;9.07;68.02
26657;BME280;14279;50.010;8.260;2023-02-02T09:33:40;101143.44;;;9.14;67.68
26657;BME280;14279;50.010;8.260;2023-02-02T09:36:16;101154.72;;;9.13;67.19
26657;BME280;14279;50.010;8.260;2023-02-02T09:38:42;101159.78;;;9.18;67.66
26657;BME280;14279;50.010;8.260;2023-02-02T09:44:42;101167.59;;;9.16;67.45
26657;BME280;14279;50.010;8.260;2023-02-02T09:48:01;101164.00;;;9.22;67.32
26657;BME280;14279;50.010;8.260;2023-02-02T09:53:22;101158.03;;;9.18;67.66
26657;BME280;14279;50.010;8.260;2023-02-02T09:55:51;101168.81;;;9.36;66.85
26657;BME280;14279;50.010;8.260;2023-02-02T09:58:23;101167.94;;;9.04;67.87
26657;BME280;14279;50.010;8.260;2023-02-02T10:00:57;101182.44;;;9.44;67.14
26657;BME280;14279;50.010;8.260;2023-02-02T10:03:30;101182.44;;;9.13;67.77
26657;BME280;14279;50.010;8.260;2023-02-02T10:06:03;101190.44;;;9.37;67.25
26657;BME280;14279;50.010;8.260;2023-02-02T10:08:43;101200.91;;;9.33;67.02
26657;BME280;14279;50.010;8.260;2023-02-02T10:13:48;101200.91;;;9.33;67.17
26657;BME280;14279;50.010;8.260;2023-02-02T10:16:16;101208.25;;;9.19;67.73
26657;BME280;14279;50.010;8.260;2023-02-02T10:19:05;101211.22;;;9.05;67.98
26657;BME280;14279;50.010;8.260;2023-02-02T10:21:40;101223.59;;;8.94;68.57
26657;BME280;14279;50.010;8.260;2023-02-02T10:24:17;101234.16;;;9.21;68.20
26657;BME280;14279;50.010;8.260;2023-02-02T10:26:52;101226.88;;;9.35;67.80
26657;BME280;14279;50.010;8.260;2023-02-02T10:29:31;101219.09;;;9.35;67.76
26657;BME280;14279;50.010;8.260;2023-02-02T10:37:37;101224.09;;;9.41;67.17
26657;BME280;14279;50.010;8.260;2023-02-02T10:40:14;101224.38;;;9.30;68.08
26657;BME280;14279;50.010;8.260;2023-02-02T10:45:49;101220.22;;;9.25;67.74
26657;BME280;14279;50.010;8.260;2023-02-02T10:48:21;101216.94;;;9.18;68.82
26657;BME280;14279;50.010;8.260;2023-02-02T10:50:50;101216.00;;;9.21;68.62
26657;BME280;14279;50.010;8.260;2023-02-02T10:53:18;101207.00;;;9.32;67.85
26657;BME280;14279;50.010;8.260;2023-02-02T10:55:52;101216.88;;;9.51;67.58
26657;BME280;14279;50.010;8.260;2023-02-02T10:58:43;101210.75;;;9.22;68.44
26657;BME280;14279;50.010;8.260;2023-02-02T11:01:12;101201.03;;;9.60;67.50
26657;BME280;14279;50.010;8.260;2023-02-02T11:03:42;101208.91;;;9.57;67.07
26657;BME280;14279;50.010;8.260;2023-02-02T11:06:07;101210.28;;;9.71;66.91
26657;BME280;14279;50.010;8.260;2023-02-02T11:08:54;101199.00;;;9.40;67.71
26657;BME280;14279;50.010;8.260;2023-02-02T11:11:27;101222.22;;;9.46;67.84
26657;BME280;14279;50.010;8.260;2023-02-02T11:16:28;101208.28;;;9.81;67.42
26657;BME280;14279;50.010;8.260;2023-02-02T11:18:53;101207.41;;;9.50;67.53
26657;BME280;14279;50.010;8.260;2023-02-02T11:21:20;101204.09;;;9.45;67.45
26657;BME280;14279;50.010;8.260;2023-02-02T11:23:59;101200.63;;;9.44;67.44
26657;BME280;14279;50.010;8.260;2023-02-02T11:26:26;101203.31;;;9.41;67.93
26657;BME280;14279;50.010;8.260;2023-02-02T11:28:53;101205.66;;;9.51;67.82
26657;BME280;14279;50.010;8.260;2023-02-02T11:31:34;101227.41;;;9.48;67.48
26657;BME280;14279;50.010;8.260;2023-02-02T11:34:21;101203.22;;;9.44;67.66
26657;BME280;14279;50.010;8.260;2023-02-02T11:37:11;101225.09;;;9.69;66.63
26657;BME280;14279;50.010;8.260;2023-02-02T11:39:38;101217.06;;;9.76;66.33
26657;BME280;14279;50.010;8.260;2023-02-02T11:42:16;101199.00;;;9.72;66.50
26657;BME280;14279;50.010;8.260;2023-02-02T11:44:45;101209.06;;;9.53;67.00
26657;BME280;14279;50.010;8.260;2023-02-02T11:47:21;101215.06;;;9.55;67.21
26657;BME280;14279;50.010;8.260;2023-02-02T11:49:49;101198.59;;;9.54;68.11
26657;BME280;14279;50.010;8.260;2023-02-02T11:52:24;101212.63;;;9.48;68.85
26657;BME280;14279;50.010;8.260;2023-02-02T11:54:52;101205.50;;;9.55;68.47
26657;BME280;14279;50.010;8.260;2023-02-02T11:57:21;101213.53;;;9.47;68.76
26657;BME280;14279;50.010;8.260;2023-02-02T11:59:48;101208.41;;;9.44;69.69
26657;BME280;14279;50.010;8.260;2023-02-02T12:02:28;101221.97;;;9.24;70.01
26657;BME280;14279;50.010;8.260;2023-02-02T12:07:36;101210.50;;;9.31;70.66
26657;BME280;14279;50.010;8.260;2023-02-02T12:10:15;101212.34;;;9.59;70.52
26657;BME280;14279;50.010;8.260;2023-02-02T12:12:59;101218.78;;;9.46;70.01
26657;BME280;14279;50.010;8.260;2023-02-02T12:20:56;101202.22;;;9.50;68.92
26657;BME280;14279;50.010;8.260;2023-02-02T12:23:52;101203.78;;;9.86;67.88
26657;BME280;14279;50.010;8.260;2023-02-02T12:26:27;101215.66;;;9.65;68.10
26657;BME280;14279;50.010;8.260;2023-02-02T12:29:24;101224.09;;;9.73;67.74
26657;BME280;14279;50.010;8.260;2023-02-02T12:35:22;101212.88;;;10.01;66.84
26657;BME280;14279;50.010;8.260;2023-02-02T12:40:55;101211.78;;;9.80;66.99
26657;BME280;14279;50.010;8.260;2023-02-02T12:43:41;101218.59;;;10.12;66.30
26657;BME280;14279;50.010;8.260;2023-02-02T12:49:05;101207.63;;;10.31;66.65
26657;BME280;14279;50.010;8.260;2023-02-02T12:58:04;101206.28;;;9.89;68.90
26657;BME280;14279;50.010;8.260;2023-02-02T13:00:54;101220.88;;;9.95;69.20
26657;BME280;14279;50.010;8.260;2023-02-02T13:03:42;101227.41;;;9.78;68.97
26657;BME280;14279;50.010;8.260;2023-02-02T13:06:20;101201.03;;;9.60;71.23
26657;BME280;14279;50.010;8.260;2023-02-02T13:09:00;101227.19;;;9.56;71.79
26657;BME280;14279;50.010;8.260;2023-02-02T13:11:46;101231.78;;;9.46;73.24
26657;BME280;14279;50.010;8.260;2023-02-02T13:14:44;101233.56;;;9.44;73.85
26657;BME280;14279;50.010;8.260;2023-02-02T13:17:18;101228.53;;;9.38;73.24
26657;BME280;14279;50.010;8.260;2023-02-02T13:19:51;101230.38;;;9.34;73.32
26657;BME280;14279;50.010;8.260;2023-02-02T13:22:24;101236.09;;;9.45;73.06
26657;BME280;14279;50.010;8.260;2023-02-02T13:24:54;101231.56;;;9.54;72.10
26657;BME280;14279;50.010;8.260;2023-02-02T13:27:21;101224.66;;;9.53;71.49
26657;BME280;14279;50.010;8.260;2023-02-02T13:29:51;101231.19;;;9.66;70.96
26657;BME280;14279;50.010;8.260;2023-02-02T13:34:58;101232.41;;;9.86;69.12
26657;BME280;14279;50.010;8.260;2023-02-02T13:37:46;101241.22;;;9.80;68.99
26657;BME280;14279;50.010;8.260;2023-02-02T13:48:21;101248.06;;;10.13;67.77
26657;BME280;14279;50.010;8.260;2023-02-02T13:53:42;101249.09;;;10.07;67.53
26657;BME280;14279;50.010;8.260;2023-02-02T13:59:05;101240.78;;;9.96;67.01
26657;BME280;14279;50.010;8.260;2023-02-02T14:01:35;101250.72;;;10.11;67.13
26657;BME280;14279;50.010;8.260;2023-02-02T14:04:00;101255.41;;;10.28;66.53
26657;BME280;14279;50.010;8.260;2023-02-02T14:06:27;101252.09;;;10.23;66.66
26657;BME280;14279;50.010;8.260;2023-02-02T14:08:59;101251.94;;;10.28;66.80
26657;BME280;14279;50.010;8.260;2023-02-02T14:11:33;101257.38;;;10.21;66.35
26657;BME280;14279;50.010;8.260;2023-02-02T14:14:14;101245.47;;;10.13;66.77
26657;BME280;14279;50.010;8.260;2023-02-02T14:16:56;101270.88;;;10.04;67.09
26657;BME280;14279;50.010;8.260;2023-02-02T14:27:03;101271.06;;;10.27;66.78
26657;BME280;14279;50.010;8.260;2023-02-02T14:32:29;101271.13;;;10.25;67.17
26657;BME280;14279;50.010;8.260;2023-02-02T14:37:46;101282.75;;;10.13;67.35
26657;BME280;14279;50.010;8.260;2023-02-02T14:45:46;101297.88;;;10.00;68.17
26657;BME280;14279;50.010;8.260;2023-02-02T14:48:16;101299.06;;;9.88;69.01
26657;BME280;14279;50.010;8.260;2023-02-02T14:50:46;101303.75;;;10.07;68.22